Terminal Aerodrome Forecast
Issued by NWS Sioux Falls, SD

Home | Current Version | Previous Version | Text Only | Print | Product List | Glossary On
Versions: 1 2 3 4 5 6 7 8 9 10 11 12 13 14 15 16 17 18 19 20 21 22 23 24 25 26 27 28 29 30 31 32 33 34 35
000
FTUS43 KFSD 130500
TAFSUX
TAF
KSUX 130520Z 1306/1406 33006KT P6SM SCT200
     FM130800 33006KT 3SM BR SKC
     FM131000 31005KT 1SM BR SKC
     FM131300 32008KT P6SM SCT050
     FM131700 32011G18KT P6SM SCT040
     FM140100 01006KT P6SM SKC=

USA.gov is the U.S. government's official web portal to all federal, state and local government web resources and services.